sensor_id;sensor_type;location;lat;lon;timestamp;temperature;humidity
64983;DHT22;62161;54.688;25.256;2022-09-09T07:34:21;13.76;53.14
64983;DHT22;62161;54.688;25.256;2022-09-09T07:36:47;14.41;51.16
64983;DHT22;62161;54.688;25.256;2022-09-09T07:39:14;14.52;51.25
64983;DHT22;62161;54.688;25.256;2022-09-09T07:41:42;14.44;51.64
64983;DHT22;62161;54.688;25.256;2022-09-09T07:44:13;14.54;51.65
64983;DHT22;62161;54.688;25.256;2022-09-09T07:46:39;14.78;50.40
64983;DHT22;62161;54.688;25.256;2022-09-09T07:49:06;15.18;49.50
64983;DHT22;62161;54.688;25.256;2022-09-09T07:51:34;16.80;45.09
64983;DHT22;62161;54.688;25.256;2022-09-09T07:54:03;17.60;42.68
64983;DHT22;62161;54.688;25.256;2022-09-09T07:56:29;19.04;39.90
64983;DHT22;62161;54.688;25.256;2022-09-09T07:58:56;21.26;35.71
64983;DHT22;62161;54.688;25.256;2022-09-09T08:01:27;21.27;34.97
64983;DHT22;62161;54.688;25.256;2022-09-09T08:03:58;23.31;32.29
64983;DHT22;62161;54.688;25.256;2022-09-09T08:06:26;22.99;32.18
64983;DHT22;62161;54.688;25.256;2022-09-09T08:08:52;22.84;32.78
64983;DHT22;62161;54.688;25.256;2022-09-09T08:11:18;21.80;34.03
64983;DHT22;62161;54.688;25.256;2022-09-09T08:13:44;22.57;32.12
64983;DHT22;62161;54.688;25.256;2022-09-09T08:16:15;23.08;30.93
64983;DHT22;62161;54.688;25.256;2022-09-09T08:18:41;24.17;29.33
64983;DHT22;62161;54.688;25.256;2022-09-09T08:21:12;22.77;30.20
64983;DHT22;62161;54.688;25.256;2022-09-09T08:23:41;24.45;28.07
64983;DHT22;62161;54.688;25.256;2022-09-09T08:26:25;24.95;27.27
64983;DHT22;62161;54.688;25.256;2022-09-09T08:28:51;23.87;28.45
64983;DHT22;62161;54.688;25.256;2022-09-09T08:31:25;24.43;27.43
64983;DHT22;62161;54.688;25.256;2022-09-09T08:33:51;24.30;27.69
64983;DHT22;62161;54.688;25.256;2022-09-09T08:36:19;23.44;28.61
64983;DHT22;62161;54.688;25.256;2022-09-09T08:39:04;22.12;30.67
64983;DHT22;62161;54.688;25.256;2022-09-09T08:47:48;21.15;32.38
64983;DHT22;62161;54.688;25.256;2022-09-09T08:50:28;20.41;33.85
64983;DHT22;62161;54.688;25.256;2022-09-09T08:58:17;18.62;36.71
64983;DHT22;62161;54.688;25.256;2022-09-09T09:06:55;16.06;42.40
64983;DHT22;62161;54.688;25.256;2022-09-09T09:12:23;15.87;42.83
64983;DHT22;62161;54.688;25.256;2022-09-09T09:14:49;15.79;43.22
64983;DHT22;62161;54.688;25.256;2022-09-09T09:17:20;15.84;43.98
64983;DHT22;62161;54.688;25.256;2022-09-09T09:19:47;15.95;43.61
64983;DHT22;62161;54.688;25.256;2022-09-09T09:24:52;15.99;44.12
64983;DHT22;62161;54.688;25.256;2022-09-09T09:29:50;16.25;43.27
64983;DHT22;62161;54.688;25.256;2022-09-09T09:32:18;15.72;44.27
64983;DHT22;62161;54.688;25.256;2022-09-09T09:34:51;15.53;45.06
64983;DHT22;62161;54.688;25.256;2022-09-09T09:37:31;15.62;44.82
64983;DHT22;62161;54.688;25.256;2022-09-09T09:40:08;15.34;44.74
64983;DHT22;62161;54.688;25.256;2022-09-09T09:42:34;15.29;45.62
64983;DHT22;62161;54.688;25.256;2022-09-09T09:45:29;15.12;46.15
64983;DHT22;62161;54.688;25.256;2022-09-09T09:48:04;15.00;46.82
64983;DHT22;62161;54.688;25.256;2022-09-09T09:50:31;14.95;47.39
64983;DHT22;62161;54.688;25.256;2022-09-09T09:53:04;15.06;46.71
64983;DHT22;62161;54.688;25.256;2022-09-09T09:55:31;15.18;47.07
64983;DHT22;62161;54.688;25.256;2022-09-09T09:58:05;15.39;46.72
64983;DHT22;62161;54.688;25.256;2022-09-09T10:00:32;15.46;46.50
64983;DHT22;62161;54.688;25.256;2022-09-09T10:03:00;15.43;46.67
64983;DHT22;62161;54.688;25.256;2022-09-09T10:05:30;15.33;47.06
64983;DHT22;62161;54.688;25.256;2022-09-09T10:19:20;15.41;47.54
64983;DHT22;62161;54.688;25.256;2022-09-09T10:30:14;15.77;46.58
64983;DHT22;62161;54.688;25.256;2022-09-09T10:35:30;15.98;46.55
64983;DHT22;62161;54.688;25.256;2022-09-09T10:52:28;16.15;45.57
64983;DHT22;62161;54.688;25.256;2022-09-09T10:57:45;15.88;45.74
64983;DHT22;62161;54.688;25.256;2022-09-09T11:00:34;15.75;46.10
64983;DHT22;62161;54.688;25.256;2022-09-09T11:03:02;15.85;46.12
64983;DHT22;62161;54.688;25.256;2022-09-09T11:05:38;15.95;46.12
64983;DHT22;62161;54.688;25.256;2022-09-09T11:08:20;15.96;45.89
64983;DHT22;62161;54.688;25.256;2022-09-09T11:13:45;16.22;45.98
64983;DHT22;62161;54.688;25.256;2022-09-09T11:21:52;16.87;44.73
64983;DHT22;62161;54.688;25.256;2022-09-09T11:24:26;16.43;44.57
64983;DHT22;62161;54.688;25.256;2022-09-09T11:26:57;16.68;44.81
64983;DHT22;62161;54.688;25.256;2022-09-09T11:29:43;16.75;44.54
64983;DHT22;62161;54.688;25.256;2022-09-09T11:38:29;16.32;42.15
64983;DHT22;62161;54.688;25.256;2022-09-09T11:41:03;16.39;42.19
64983;DHT22;62161;54.688;25.256;2022-09-09T11:43:41;16.40;41.97
64983;DHT22;62161;54.688;25.256;2022-09-09T11:46:08;16.65;41.92
64983;DHT22;62161;54.688;25.256;2022-09-09T11:51:28;16.25;42.79
64983;DHT22;62161;54.688;25.256;2022-09-09T11:53:56;16.29;42.51
64983;DHT22;62161;54.688;25.256;2022-09-09T11:56:29;16.37;41.91
64983;DHT22;62161;54.688;25.256;2022-09-09T12:04:10;16.06;42.56
64983;DHT22;62161;54.688;25.256;2022-09-09T12:06:50;15.98;42.51
64983;DHT22;62161;54.688;25.256;2022-09-09T12:09:33;15.89;42.69
64983;DHT22;62161;54.688;25.256;2022-09-09T12:17:20;16.23;42.10
64983;DHT22;62161;54.688;25.256;2022-09-09T12:19:47;16.19;42.58
64983;DHT22;62161;54.688;25.256;2022-09-09T12:24:49;16.12;42.90
64983;DHT22;62161;54.688;25.256;2022-09-09T12:27:33;16.20;42.77
64983;DHT22;62161;54.688;25.256;2022-09-09T12:30:17;16.19;42.71
64983;DHT22;62161;54.688;25.256;2022-09-09T12:32:43;16.25;42.53
64983;DHT22;62161;54.688;25.256;2022-09-09T12:35:20;16.23;42.60
64983;DHT22;62161;54.688;25.256;2022-09-09T12:40:22;16.15;42.88
64983;DHT22;62161;54.688;25.256;2022-09-09T12:42:48;15.99;42.78
64983;DHT22;62161;54.688;25.256;2022-09-09T12:45:25;15.85;43.60
64983;DHT22;62161;54.688;25.256;2022-09-09T12:47:54;15.67;44.01
64983;DHT22;62161;54.688;25.256;2022-09-09T12:52:50;15.47;44.07
64983;DHT22;62161;54.688;25.256;2022-09-09T12:55:37;15.44;44.51
64983;DHT22;62161;54.688;25.256;2022-09-09T12:58:05;15.43;44.01
64983;DHT22;62161;54.688;25.256;2022-09-09T13:00:32;15.43;44.59
64983;DHT22;62161;54.688;25.256;2022-09-09T13:03:00;15.43;44.24
64983;DHT22;62161;54.688;25.256;2022-09-09T13:08:10;15.40;44.33
64983;DHT22;62161;54.688;25.256;2022-09-09T13:10:51;15.43;44.65
64983;DHT22;62161;54.688;25.256;2022-09-09T13:13:23;15.43;44.85
64983;DHT22;62161;54.688;25.256;2022-09-09T13:15:53;15.40;44.93
64983;DHT22;62161;54.688;25.256;2022-09-09T13:18:27;15.41;45.02
64983;DHT22;62161;54.688;25.256;2022-09-09T13:20:54;15.43;45.21
64983;DHT22;62161;54.688;25.256;2022-09-09T13:23:21;15.48;44.70
64983;DHT22;62161;54.688;25.256;2022-09-09T13:25:58;15.53;44.21
64983;DHT22;62161;54.688;25.256;2022-09-09T13:28:27;15.58;44.34
64983;DHT22;62161;54.688;25.256;2022-09-09T13:31:23;15.69;44.02
64983;DHT22;62161;54.688;25.256;2022-09-09T13:33:48;15.79;43.89
64983;DHT22;62161;54.688;25.256;2022-09-09T13:36:14;15.88;43.65
64983;DHT22;62161;54.688;25.256;2022-09-09T13:45:17;16.44;43.16
64983;DHT22;62161;54.688;25.256;2022-09-09T13:47:43;16.61;43.27
64983;DHT22;62161;54.688;25.256;2022-09-09T13:50:26;16.70;42.02
64983;DHT22;62161;54.688;25.256;2022-09-09T13:52:53;16.74;42.10
64983;DHT22;62161;54.688;25.256;2022-09-09T13:55:23;16.67;41.83
64983;DHT22;62161;54.688;25.256;2022-09-09T13:57:56;16.80;42.45
64983;DHT22;62161;54.688;25.256;2022-09-09T14:00:23;16.88;42.17
64983;DHT22;62161;54.688;25.256;2022-09-09T14:02:50;17.01;42.42
64983;DHT22;62161;54.688;25.256;2022-09-09T14:05:16;16.89;41.52
64983;DHT22;62161;54.688;25.256;2022-09-09T14:07:42;16.78;41.40
64983;DHT22;62161;54.688;25.256;2022-09-09T14:10:09;16.68;42.50
64983;DHT22;62161;54.688;25.256;2022-09-09T14:12:35;16.60;42.39
64983;DHT22;62161;54.688;25.256;2022-09-09T14:15:05;16.68;42.91
64983;DHT22;62161;54.688;25.256;2022-09-09T14:17:30;16.73;42.54
64983;DHT22;62161;54.688;25.256;2022-09-09T14:19:57;16.68;42.18
64983;DHT22;62161;54.688;25.256;2022-09-09T14:22:23;16.68;42.47
64983;DHT22;62161;54.688;25.256;2022-09-09T14:24:49;16.59;42.05
64983;DHT22;62161;54.688;25.256;2022-09-09T14:27:16;16.43;42.16
64983;DHT22;62161;54.688;25.256;2022-09-09T14:29:41;16.43;41.92
64983;DHT22;62161;54.688;25.256;2022-09-09T14:32:08;16.49;42.26
64983;DHT22;62161;54.688;25.256;2022-09-09T14:34:34;16.52;41.91
64983;DHT22;62161;54.688;25.256;2022-09-09T14:37:00;16.44;42.24
64983;DHT22;62161;54.688;25.256;2022-09-09T14:39:25;16.42;41.69
64983;DHT22;62161;54.688;25.256;2022-09-09T14:41:51;16.46;41.28
64983;DHT22;62161;54.688;25.256;2022-09-09T14:44:16;16.26;41.79
64983;DHT22;62161;54.688;25.256;2022-09-09T14:46:42;16.15;42.59
64983;DHT22;62161;54.688;25.256;2022-09-09T14:49:08;16.05;42.68
64983;DHT22;62161;54.688;25.256;2022-09-09T14:51:35;15.96;42.93
64983;DHT22;62161;54.688;25.256;2022-09-09T14:54:02;15.91;43.52
64983;DHT22;62161;54.688;25.256;2022-09-09T14:56:30;15.79;44.06
64983;DHT22;62161;54.688;25.256;2022-09-09T14:58:57;15.78;43.73
64983;DHT22;62161;54.688;25.256;2022-09-09T15:01:24;15.82;44.14
64983;DHT22;62161;54.688;25.256;2022-09-09T15:06:21;15.82;44.06
64983;DHT22;62161;54.688;25.256;2022-09-09T15:08:47;15.78;44.36
64983;DHT22;62161;54.688;25.256;2022-09-09T15:11:14;15.79;43.87
64983;DHT22;62161;54.688;25.256;2022-09-09T15:13:41;15.75;43.97
64983;DHT22;62161;54.688;25.256;2022-09-09T15:16:19;15.68;44.33
64983;DHT22;62161;54.688;25.256;2022-09-09T15:18:45;15.65;44.66
64983;DHT22;62161;54.688;25.256;2022-09-09T15:21:16;15.64;44.87
64983;DHT22;62161;54.688;25.256;2022-09-09T15:23:43;15.68;44.92
64983;DHT22;62161;54.688;25.256;2022-09-09T15:26:09;15.67;44.82
64983;DHT22;62161;54.688;25.256;2022-09-09T15:28:36;15.68;44.77
64983;DHT22;62161;54.688;25.256;2022-09-09T15:31:15;15.67;45.11
64983;DHT22;62161;54.688;25.256;2022-09-09T15:33:56;15.67;44.60
64983;DHT22;62161;54.688;25.256;2022-09-09T15:36:36;15.64;45.11
64983;DHT22;62161;54.688;25.256;2022-09-09T15:39:04;15.60;45.08
64983;DHT22;62161;54.688;25.256;2022-09-09T15:41:30;15.48;45.16
64983;DHT22;62161;54.688;25.256;2022-09-09T15:43:59;15.40;45.81
64983;DHT22;62161;54.688;25.256;2022-09-09T15:49:13;15.29;46.20
64983;DHT22;62161;54.688;25.256;2022-09-09T15:51:44;15.34;45.90
64983;DHT22;62161;54.688;25.256;2022-09-09T15:54:12;15.29;45.90
64983;DHT22;62161;54.688;25.256;2022-09-09T15:56:37;15.27;46.45
64983;DHT22;62161;54.688;25.256;2022-09-09T15:59:03;15.26;46.50
64983;DHT22;62161;54.688;25.256;2022-09-09T16:01:29;15.22;46.81
64983;DHT22;62161;54.688;25.256;2022-09-09T16:03:57;15.18;46.93
64983;DHT22;62161;54.688;25.256;2022-09-09T16:06:23;15.12;47.09
64983;DHT22;62161;54.688;25.256;2022-09-09T16:08:51;15.03;47.71
64983;DHT22;62161;54.688;25.256;2022-09-09T16:11:24;14.91;48.53
64983;DHT22;62161;54.688;25.256;2022-09-09T16:13:52;14.81;48.85
64983;DHT22;62161;54.688;25.256;2022-09-09T16:16:20;14.78;48.82
64983;DHT22;62161;54.688;25.256;2022-09-09T16:18:49;14.69;48.61
64983;DHT22;62161;54.688;25.256;2022-09-09T16:21:28;14.64;49.08
64983;DHT22;62161;54.688;25.256;2022-09-09T16:23:54;14.58;49.19
64983;DHT22;62161;54.688;25.256;2022-09-09T16:26:21;14.51;49.14
64983;DHT22;62161;54.688;25.256;2022-09-09T16:28:46;14.42;49.56
64983;DHT22;62161;54.688;25.256;2022-09-09T16:31:20;14.45;49.43
64983;DHT22;62161;54.688;25.256;2022-09-09T16:33:46;14.34;49.77
64983;DHT22;62161;54.688;25.256;2022-09-09T16:36:32;14.24;50.22
64983;DHT22;62161;54.688;25.256;2022-09-09T16:39:00;14.17;50.35
64983;DHT22;62161;54.688;25.256;2022-09-09T16:41:27;14.10;50.50
64983;DHT22;62161;54.688;25.256;2022-09-09T16:44:03;14.02;50.81
64983;DHT22;62161;54.688;25.256;2022-09-09T16:46:30;13.97;50.86
64983;DHT22;62161;54.688;25.256;2022-09-09T16:48:57;13.87;51.08
64983;DHT22;62161;54.688;25.256;2022-09-09T16:51:31;13.86;51.38
64983;DHT22;62161;54.688;25.256;2022-09-09T16:54:01;13.77;51.54
64983;DHT22;62161;54.688;25.256;2022-09-09T16:56:29;13.66;51.97
64983;DHT22;62161;54.688;25.256;2022-09-09T16:58:57;13.63;52.20
64983;DHT22;62161;54.688;25.256;2022-09-09T17:01:27;13.59;52.40
64983;DHT22;62161;54.688;25.256;2022-09-09T17:03:54;13.51;52.70
64983;DHT22;62161;54.688;25.256;2022-09-09T17:06:20;13.44;53.05
64983;DHT22;62161;54.688;25.256;2022-09-09T17:08:46;13.37;53.37
64983;DHT22;62161;54.688;25.256;2022-09-09T17:13:42;13.27;53.95
64983;DHT22;62161;54.688;25.256;2022-09-09T17:16:09;13.21;54.12
64983;DHT22;62161;54.688;25.256;2022-09-09T17:18:35;13.19;54.00
64983;DHT22;62161;54.688;25.256;2022-09-09T17:21:09;13.11;54.12
64983;DHT22;62161;54.688;25.256;2022-09-09T17:23:36;13.01;54.56
64983;DHT22;62161;54.688;25.256;2022-09-09T17:26:05;12.89;54.70
64983;DHT22;62161;54.688;25.256;2022-09-09T17:28:31;12.81;55.08
64983;DHT22;62161;54.688;25.256;2022-09-09T17:30:59;12.76;55.38
64983;DHT22;62161;54.688;25.256;2022-09-09T17:33:32;12.69;55.64
64983;DHT22;62161;54.688;25.256;2022-09-09T17:36:02;12.63;55.73
64983;DHT22;62161;54.688;25.256;2022-09-09T17:38:32;12.59;56.05
64983;DHT22;62161;54.688;25.256;2022-09-09T17:41:02;12.56;56.07
64983;DHT22;62161;54.688;25.256;2022-09-09T17:43:28;12.46;56.47
64983;DHT22;62161;54.688;25.256;2022-09-09T17:45:54;12.42;56.67
64983;DHT22;62161;54.688;25.256;2022-09-09T17:48:19;12.33;57.18
64983;DHT22;62161;54.688;25.256;2022-09-09T17:50:44;12.31;57.14
64983;DHT22;62161;54.688;25.256;2022-09-09T17:53:11;12.25;57.86
64983;DHT22;62161;54.688;25.256;2022-09-09T17:55:37;12.18;58.38
64983;DHT22;62161;54.688;25.256;2022-09-09T17:58:02;12.14;58.20
64983;DHT22;62161;54.688;25.256;2022-09-09T18:00:27;12.12;58.00
64983;DHT22;62161;54.688;25.256;2022-09-09T18:02:54;12.08;58.29
64983;DHT22;62161;54.688;25.256;2022-09-09T18:05:19;12.04;58.54
64983;DHT22;62161;54.688;25.256;2022-09-09T18:07:45;11.98;59.24
64983;DHT22;62161;54.688;25.256;2022-09-09T18:10:10;11.88;58.75
64983;DHT22;62161;54.688;25.256;2022-09-09T18:12:36;11.84;58.92
64983;DHT22;62161;54.688;25.256;2022-09-09T18:15:02;11.75;59.02
64983;DHT22;62161;54.688;25.256;2022-09-09T18:17:27;11.73;59.81
64983;DHT22;62161;54.688;25.256;2022-09-09T18:19:54;11.66;59.91
64983;DHT22;62161;54.688;25.256;2022-09-09T18:22:20;11.59;59.68
64983;DHT22;62161;54.688;25.256;2022-09-09T18:24:45;11.56;59.74
64983;DHT22;62161;54.688;25.256;2022-09-09T18:27:12;11.49;60.23
64983;DHT22;62161;54.688;25.256;2022-09-09T18:29:38;11.44;60.63
64983;DHT22;62161;54.688;25.256;2022-09-09T18:32:03;11.40;59.11
64983;DHT22;62161;54.688;25.256;2022-09-09T18:34:29;11.40;59.15
64983;DHT22;62161;54.688;25.256;2022-09-09T18:36:55;11.33;59.62
64983;DHT22;62161;54.688;25.256;2022-09-09T18:39:26;11.23;60.28
64983;DHT22;62161;54.688;25.256;2022-09-09T18:41:57;11.23;59.86
64983;DHT22;62161;54.688;25.256;2022-09-09T18:44:26;11.23;60.42
64983;DHT22;62161;54.688;25.256;2022-09-09T18:46:52;11.23;59.87
64983;DHT22;62161;54.688;25.256;2022-09-09T18:49:20;11.18;60.65
64983;DHT22;62161;54.688;25.256;2022-09-09T18:51:46;11.14;60.31
64983;DHT22;62161;54.688;25.256;2022-09-09T18:54:23;11.12;59.72
64983;DHT22;62161;54.688;25.256;2022-09-09T18:56:48;11.09;59.86
64983;DHT22;62161;54.688;25.256;2022-09-09T18:59:17;11.11;60.25
64983;DHT22;62161;54.688;25.256;2022-09-09T19:01:47;11.09;60.17
64983;DHT22;62161;54.688;25.256;2022-09-09T19:04:13;11.02;60.75
64983;DHT22;62161;54.688;25.256;2022-09-09T19:06:42;10.99;60.44
64983;DHT22;62161;54.688;25.256;2022-09-09T19:09:11;10.94;62.52
64983;DHT22;62161;54.688;25.256;2022-09-09T19:11:37;10.84;62.08
64983;DHT22;62161;54.688;25.256;2022-09-09T19:14:05;10.75;62.22
64983;DHT22;62161;54.688;25.256;2022-09-09T19:16:33;10.65;62.15
64983;DHT22;62161;54.688;25.256;2022-09-09T19:19:04;10.61;62.55
64983;DHT22;62161;54.688;25.256;2022-09-09T19:21:35;10.57;62.86
64983;DHT22;62161;54.688;25.256;2022-09-09T19:24:15;10.57;64.73
64983;DHT22;62161;54.688;25.256;2022-09-09T19:26:44;10.57;65.35
64983;DHT22;62161;54.688;25.256;2022-09-09T19:29:17;10.47;65.51
64983;DHT22;62161;54.688;25.256;2022-09-09T19:31:44;10.44;65.66
64983;DHT22;62161;54.688;25.256;2022-09-09T19:34:10;10.46;65.66
64983;DHT22;62161;54.688;25.256;2022-09-09T19:36:36;10.46;65.43
64983;DHT22;62161;54.688;25.256;2022-09-09T19:39:04;10.24;65.59
64983;DHT22;62161;54.688;25.256;2022-09-09T19:41:29;10.17;65.82
64983;DHT22;62161;54.688;25.256;2022-09-09T19:44:01;10.10;65.87
64983;DHT22;62161;54.688;25.256;2022-09-09T19:46:28;10.00;64.53
64983;DHT22;62161;54.688;25.256;2022-09-09T19:48:55;10.09;63.15
64983;DHT22;62161;54.688;25.256;2022-09-09T19:51:21;10.10;63.51
64983;DHT22;62161;54.688;25.256;2022-09-09T19:53:49;10.13;63.34
64983;DHT22;62161;54.688;25.256;2022-09-09T19:56:16;10.24;63.19
64983;DHT22;62161;54.688;25.256;2022-09-09T19:58:42;10.33;61.82
64983;DHT22;62161;54.688;25.256;2022-09-09T20:01:16;10.30;63.24
64983;DHT22;62161;54.688;25.256;2022-09-09T20:03:42;10.24;62.61
64983;DHT22;62161;54.688;25.256;2022-09-09T20:06:10;10.23;63.02
64983;DHT22;62161;54.688;25.256;2022-09-09T20:08:37;10.19;62.97
64983;DHT22;62161;54.688;25.256;2022-09-09T20:11:04;10.14;63.43
64983;DHT22;62161;54.688;25.256;2022-09-09T20:13:31;10.09;64.13
64983;DHT22;62161;54.688;25.256;2022-09-09T20:16:02;10.10;63.79
64983;DHT22;62161;54.688;25.256;2022-09-09T20:18:34;10.06;64.10
64983;DHT22;62161;54.688;25.256;2022-09-09T20:21:11;10.06;62.84
64983;DHT22;62161;54.688;25.256;2022-09-09T20:23:37;10.10;62.37
64983;DHT22;62161;54.688;25.256;2022-09-09T20:26:05;10.13;62.59
64983;DHT22;62161;54.688;25.256;2022-09-09T20:28:35;10.13;62.39
64983;DHT22;62161;54.688;25.256;2022-09-09T20:31:13;10.13;62.29
64983;DHT22;62161;54.688;25.256;2022-09-09T20:33:40;10.12;62.32
64983;DHT22;62161;54.688;25.256;2022-09-09T20:38:34;10.05;62.43
64983;DHT22;62161;54.688;25.256;2022-09-09T20:41:03;10.03;62.79
64983;DHT22;62161;54.688;25.256;2022-09-09T20:43:28;9.99;62.82
64983;DHT22;62161;54.688;25.256;2022-09-09T20:45:54;9.98;62.64
64983;DHT22;62161;54.688;25.256;2022-09-09T20:48:22;9.93;63.80
64983;DHT22;62161;54.688;25.256;2022-09-09T20:50:48;9.85;63.06
64983;DHT22;62161;54.688;25.256;2022-09-09T20:53:13;9.82;63.16
64983;DHT22;62161;54.688;25.256;2022-09-09T20:55:39;9.83;64.00
64983;DHT22;62161;54.688;25.256;2022-09-09T20:58:05;9.82;65.18
64983;DHT22;62161;54.688;25.256;2022-09-09T21:00:31;9.75;63.64
64983;DHT22;62161;54.688;25.256;2022-09-09T21:02:56;9.78;63.48
64983;DHT22;62161;54.688;25.256;2022-09-09T21:05:22;9.77;66.11
64983;DHT22;62161;54.688;25.256;2022-09-09T21:07:48;9.68;66.29
64983;DHT22;62161;54.688;25.256;2022-09-09T21:10:14;9.57;67.15
64983;DHT22;62161;54.688;25.256;2022-09-09T21:12:39;9.48;67.80
64983;DHT22;62161;54.688;25.256;2022-09-09T21:15:05;9.45;67.90
64983;DHT22;62161;54.688;25.256;2022-09-09T21:17:31;9.44;69.01
64983;DHT22;62161;54.688;25.256;2022-09-09T21:19:56;9.28;69.67
64983;DHT22;62161;54.688;25.256;2022-09-09T21:22:21;9.24;66.85
64983;DHT22;62161;54.688;25.256;2022-09-09T21:24:47;9.26;66.18
64983;DHT22;62161;54.688;25.256;2022-09-09T21:27:12;9.34;66.30
64983;DHT22;62161;54.688;25.256;2022-09-09T21:29:38;9.38;66.41
64983;DHT22;62161;54.688;25.256;2022-09-09T21:32:04;9.34;65.81
64983;DHT22;62161;54.688;25.256;2022-09-09T21:34:33;9.26;66.11
64983;DHT22;62161;54.688;25.256;2022-09-09T21:36:58;9.26;66.28
64983;DHT22;62161;54.688;25.256;2022-09-09T21:39:24;9.21;67.12
64983;DHT22;62161;54.688;25.256;2022-09-09T21:41:49;9.17;67.18
64983;DHT22;62161;54.688;25.256;2022-09-09T21:44:15;9.16;66.46
64983;DHT22;62161;54.688;25.256;2022-09-09T21:46:41;9.16;66.05
64983;DHT22;62161;54.688;25.256;2022-09-09T21:49:08;9.10;66.41
64983;DHT22;62161;54.688;25.256;2022-09-09T21:51:34;9.10;66.22
64983;DHT22;62161;54.688;25.256;2022-09-09T21:53:59;9.09;66.41
64983;DHT22;62161;54.688;25.256;2022-09-09T21:56:25;9.07;66.47
64983;DHT22;62161;54.688;25.256;2022-09-09T21:58:55;9.07;66.55
64983;DHT22;62161;54.688;25.256;2022-09-09T22:01:21;9.09;66.37
64983;DHT22;62161;54.688;25.256;2022-09-09T22:03:50;9.02;67.06
64983;DHT22;62161;54.688;25.256;2022-09-09T22:06:17;8.97;66.92
64983;DHT22;62161;54.688;25.256;2022-09-09T22:08:44;8.93;67.40
64983;DHT22;62161;54.688;25.256;2022-09-09T22:11:13;8.86;67.29
64983;DHT22;62161;54.688;25.256;2022-09-09T22:13:39;8.87;67.19
64983;DHT22;62161;54.688;25.256;2022-09-09T22:16:07;8.85;67.42
64983;DHT22;62161;54.688;25.256;2022-09-09T22:18:33;8.85;67.20
64983;DHT22;62161;54.688;25.256;2022-09-09T22:21:06;8.86;67.16
64983;DHT22;62161;54.688;25.256;2022-09-09T22:23:32;8.82;67.22
64983;DHT22;62161;54.688;25.256;2022-09-09T22:25:57;8.83;67.16
64983;DHT22;62161;54.688;25.256;2022-09-09T22:28:22;8.83;66.93
64983;DHT22;62161;54.688;25.256;2022-09-09T22:30:48;8.83;66.95
64983;DHT22;62161;54.688;25.256;2022-09-09T22:33:13;8.85;67.03
64983;DHT22;62161;54.688;25.256;2022-09-09T22:35:40;8.83;67.39
64983;DHT22;62161;54.688;25.256;2022-09-09T22:38:08;8.86;67.06
64983;DHT22;62161;54.688;25.256;2022-09-09T22:40:38;8.89;67.01
64983;DHT22;62161;54.688;25.256;2022-09-09T22:43:13;8.83;67.06
64983;DHT22;62161;54.688;25.256;2022-09-09T22:45:39;8.82;67.02
64983;DHT22;62161;54.688;25.256;2022-09-09T22:48:06;8.77;67.19
64983;DHT22;62161;54.688;25.256;2022-09-09T22:50:35;8.79;67.16
